Time,TemperatureF,DewpointF,PressureIn,WindDirection,WindDirectionDegrees,WindSpeedMPH,WindSpeedGustMPH,Humidity,HourlyPrecipIn,Conditions,Clouds,dailyrainin,SoftwareType,DateUTC
2013-01-11 00:03:00,10.4,7.6,29.63,North,349,11.0,11.0,88,0.00,,OVC019,0.00,VWS V14.01,2013-01-11 07:03:00,
2013-01-11 00:08:00,9.9,7.0,29.63,NNW,344,5.8,11.0,88,0.00,,OVC019,0.00,VWS V14.01,2013-01-11 07:08:00,
2013-01-11 00:13:00,9.5,6.7,29.63,NW,325,10.5,12.3,88,0.00,,OVC019,0.00,VWS V14.01,2013-01-11 07:13:00,
2013-01-11 00:18:00,9.5,6.7,29.63,NNW,337,10.5,12.8,88,0.00,,OVC019,0.00,VWS V14.01,2013-01-11 07:18:00,
2013-01-11 00:23:00,9.5,6.7,29.63,NNW,333,8.1,12.8,88,0.00,,OVC019,0.00,VWS V14.01,2013-01-11 07:23:00,
2013-01-11 00:28:00,9.5,6.7,29.63,NNW,345,8.1,13.2,88,0.00,,OVC019,0.00,VWS V14.01,2013-01-11 07:28:00,
2013-01-11 00:33:00,9.7,6.8,29.63,NNW,340,8.7,12.3,88,0.00,,OVC019,0.00,VWS V14.01,2013-01-11 07:33:00,
2013-01-11 00:38:00,9.3,6.5,29.63,NNW,340,10.5,15.0,88,0.00,,OVC019,0.00,VWS V14.01,2013-01-11 07:38:00,
2013-01-11 00:43:00,9.0,6.1,29.63,NNW,338,8.3,15.0,88,0.00,,OVC019,0.00,VWS V14.01,2013-01-11 07:43:00,
2013-01-11 00:48:00,9.0,6.1,29.63,North,353,8.3,15.0,88,0.00,,OVC019,0.00,VWS V14.01,2013-01-11 07:48:00,
2013-01-11 00:53:00,9.0,6.1,29.63,NNW,333,13.2,15.0,88,0.00,,OVC019,0.00,VWS V14.01,2013-01-11 07:53:00,
2013-01-11 00:58:00,8.8,6.0,29.63,NNW,345,12.8,15.0,88,0.00,,OVC019,0.00,VWS V14.01,2013-01-11 07:58:00,
2013-01-11 01:03:00,8.8,6.0,29.63,NNW,336,11.9,15.0,88,0.00,,OVC028,0.00,VWS V14.01,2013-01-11 08:03:00,
2013-01-11 01:08:00,8.8,6.0,29.63,North,353,12.3,15.4,88,0.00,,OVC028,0.00,VWS V14.01,2013-01-11 08:08:00,
2013-01-11 01:13:00,8.8,6.0,29.63,NNW,336,13.2,15.4,88,0.00,,OVC028,0.00,VWS V14.01,2013-01-11 08:13:00,
2013-01-11 01:18:00,8.6,5.8,29.63,NNW,346,11.9,15.4,88,0.00,,OVC028,0.00,VWS V14.01,2013-01-11 08:18:00,
2013-01-11 01:23:00,8.6,5.8,29.63,NNW,339,13.2,15.4,88,0.00,,OVC028,0.00,VWS V14.01,2013-01-11 08:23:00,
2013-01-11 01:28:00,8.6,5.8,29.63,NW,317,9.6,15.4,88,0.00,,OVC028,0.00,VWS V14.01,2013-01-11 08:28:00,
2013-01-11 01:33:00,8.4,5.6,29.63,NNW,332,9.6,15.0,88,0.00,,OVC028,0.00,VWS V14.01,2013-01-11 08:33:00,
2013-01-11 01:38:00,8.4,5.6,29.63,NNW,329,11.0,15.0,88,0.00,,OVC028,0.00,VWS V14.01,2013-01-11 08:38:00,
2013-01-11 01:43:00,8.4,5.6,29.63,NW,313,10.5,17.0,88,0.00,,OVC028,0.00,VWS V14.01,2013-01-11 08:43:00,
2013-01-11 01:48:00,8.2,5.4,29.63,NNW,331,13.2,18.3,88,0.00,,OVC028,0.00,VWS V14.01,2013-01-11 08:48:00,
2013-01-11 01:53:00,8.2,5.4,29.63,NNW,340,12.3,18.3,88,0.00,,OVC028,0.00,VWS V14.01,2013-01-11 08:53:00,
2013-01-11 01:58:00,8.2,5.4,29.63,NW,320,15.0,19.2,88,0.00,,OVC028,0.00,VWS V14.01,2013-01-11 08:58:00,
2013-01-11 02:03:00,8.1,5.2,29.63,NNW,330,10.5,19.7,88,0.00,,OVC015,0.00,VWS V14.01,2013-01-11 09:03:00,
2013-01-11 02:08:00,8.1,5.2,29.63,NNW,328,13.2,21.9,88,0.00,,OVC015,0.00,VWS V14.01,2013-01-11 09:08:00,
2013-01-11 02:13:00,8.1,5.2,29.63,NW,317,15.4,21.9,88,0.00,,OVC015,0.00,VWS V14.01,2013-01-11 09:13:00,
2013-01-11 02:18:00,7.9,5.1,29.63,NNW,333,8.7,21.9,88,0.00,,OVC015,0.00,VWS V14.01,2013-01-11 09:18:00,
2013-01-11 02:23:00,7.5,4.7,29.63,NW,323,16.8,21.9,88,0.00,,OVC015,0.00,VWS V14.01,2013-01-11 09:23:00,
2013-01-11 02:28:00,7.3,4.5,29.63,NNW,339,13.6,21.9,88,0.00,,OVC015,0.00,VWS V14.01,2013-01-11 09:28:00,
2013-01-11 02:33:00,7.2,4.4,29.63,NW,321,12.8,14.5,88,0.00,,OVC015,0.00,VWS V14.01,2013-01-11 09:33:00,
2013-01-11 02:38:00,7.3,4.5,29.63,NNW,331,11.9,15.4,88,0.00,,OVC015,0.00,VWS V14.01,2013-01-11 09:38:00,
2013-01-11 02:43:00,7.3,4.5,29.66,NNW,333,12.8,21.5,88,0.00,,OVC015,0.00,VWS V14.01,2013-01-11 09:43:00,
2013-01-11 02:48:00,7.2,4.4,29.66,NNW,327,12.8,21.5,88,0.00,,OVC015,0.00,VWS V14.01,2013-01-11 09:48:00,
2013-01-11 02:53:00,7.2,4.4,29.66,NNW,330,10.5,21.5,88,0.00,,OVC015,0.00,VWS V14.01,2013-01-11 09:53:00,
2013-01-11 02:58:00,7.0,4.2,29.66,North,350,17.0,21.5,88,0.00,,OVC015,0.00,VWS V14.01,2013-01-11 09:58:00,
2013-01-11 03:03:00,6.8,4.0,29.66,NNW,332,10.1,16.8,88,0.00,,OVC009,0.00,VWS V14.01,2013-01-11 10:03:00,
2013-01-11 03:08:00,6.8,4.0,29.66,North,353,15.0,17.9,88,0.00,,OVC009,0.00,VWS V14.01,2013-01-11 10:08:00,
2013-01-11 03:13:00,6.4,3.7,29.66,NNW,334,17.4,19.7,88,0.00,,OVC009,0.00,VWS V14.01,2013-01-11 10:13:00,
2013-01-11 03:18:00,6.4,3.7,29.66,North,353,10.5,19.7,88,0.00,,OVC009,0.00,VWS V14.01,2013-01-11 10:18:00,
2013-01-11 03:23:00,6.4,3.7,29.66,NNW,328,10.5,19.7,88,0.00,,OVC009,0.00,VWS V14.01,2013-01-11 10:23:00,
2013-01-11 03:28:00,6.3,3.5,29.66,NW,314,11.0,19.7,88,0.00,,OVC009,0.00,VWS V14.01,2013-01-11 10:28:00,
2013-01-11 03:33:00,6.3,3.5,29.66,NNW,340,17.0,17.0,88,0.00,,OVC009,0.00,VWS V14.01,2013-01-11 10:33:00,
2013-01-11 03:38:00,6.3,3.5,29.66,NW,319,13.6,17.4,88,0.00,,OVC009,0.00,VWS V14.01,2013-01-11 10:38:00,
2013-01-11 03:43:00,6.1,3.3,29.63,NNW,334,15.0,17.4,88,0.00,,OVC009,0.00,VWS V14.01,2013-01-11 10:43:00,
2013-01-11 03:48:00,5.9,3.1,29.63,North,353,12.8,17.4,88,0.00,,OVC009,0.00,VWS V14.01,2013-01-11 10:48:00,
2013-01-11 03:53:00,5.4,2.6,29.63,NNE,14,12.8,17.9,88,0.00,,OVC009,0.00,VWS V14.01,2013-01-11 10:53:00,
2013-01-11 03:58:00,5.2,2.4,29.63,NNW,334,8.1,17.9,88,0.00,,OVC009,0.00,VWS V14.01,2013-01-11 10:58:00,
2013-01-11 04:03:00,5.0,2.2,29.63,North,353,9.6,12.8,88,0.00,,OVC008,0.00,VWS V14.01,2013-01-11 11:03:00,
2013-01-11 04:08:00,4.8,2.0,29.63,North,353,8.3,15.9,88,0.00,,OVC008,0.00,VWS V14.01,2013-01-11 11:08:00,
2013-01-11 04:13:00,4.6,1.9,29.63,North,353,14.1,15.9,88,0.00,,OVC008,0.00,VWS V14.01,2013-01-11 11:13:00,
2013-01-11 04:18:00,4.5,1.7,29.63,NNW,335,8.1,15.9,88,0.00,,OVC008,0.00,VWS V14.01,2013-01-11 11:18:00,
2013-01-11 04:23:00,4.5,1.7,29.63,NNW,344,10.5,15.9,88,0.00,,OVC008,0.00,VWS V14.01,2013-01-11 11:23:00,
2013-01-11 04:28:00,4.1,1.3,29.63,North,353,8.7,15.9,88,0.00,,OVC008,0.00,VWS V14.01,2013-01-11 11:28:00,
2013-01-11 04:33:00,4.1,1.3,29.63,NNW,346,6.3,8.7,88,0.00,,OVC008,0.00,VWS V14.01,2013-01-11 11:33:00,
2013-01-11 04:38:00,3.9,1.2,29.63,NNW,345,10.5,12.3,88,0.00,,OVC008,0.00,VWS V14.01,2013-01-11 11:38:00,
2013-01-11 04:43:00,3.7,1.0,29.63,NNW,328,10.1,13.2,88,0.00,,OVC008,0.00,VWS V14.01,2013-01-11 11:43:00,
2013-01-11 04:48:00,3.7,1.0,29.63,North,3,8.7,13.2,88,0.00,,OVC008,0.00,VWS V14.01,2013-01-11 11:48:00,
2013-01-11 04:53:00,3.9,1.2,29.63,North,357,5.8,13.2,88,0.00,,OVC008,0.00,VWS V14.01,2013-01-11 11:53:00,
2013-01-11 04:58:00,4.1,1.3,29.63,North,349,13.2,13.2,88,0.00,,OVC008,0.00,VWS V14.01,2013-01-11 11:58:00,
2013-01-11 05:03:00,4.1,1.3,29.63,North,353,12.3,15.4,88,0.00,,OVC010,0.00,VWS V14.01,2013-01-11 12:03:00,
2013-01-11 05:08:00,4.1,1.3,29.63,North,353,11.0,17.4,88,0.00,,OVC010,0.00,VWS V14.01,2013-01-11 12:08:00,
2013-01-11 05:12:00,4.1,1.3,29.66,NNW,337,8.1,17.4,88,0.00,,OVC010,0.00,VWS V14.01,2013-01-11 12:12:00,
2013-01-11 05:17:00,4.1,1.3,29.66,NNW,340,8.3,17.4,88,0.00,,OVC010,0.00,VWS V14.01,2013-01-11 12:17:00,
2013-01-11 05:22:00,4.1,1.3,29.66,NNW,335,13.2,17.4,88,0.00,,OVC010,0.00,VWS V14.01,2013-01-11 12:22:00,
2013-01-11 05:28:00,4.1,1.3,29.66,NNW,336,13.2,17.4,88,0.00,,OVC010,0.00,VWS V14.01,2013-01-11 12:28:00,
2013-01-11 05:33:00,4.1,1.3,29.66,NNW,337,8.3,15.4,88,0.00,,OVC010,0.00,VWS V14.01,2013-01-11 12:33:00,
2013-01-11 05:38:00,4.1,1.3,29.66,NNW,339,8.3,15.4,88,0.00,,OVC010,0.00,VWS V14.01,2013-01-11 12:38:00,
2013-01-11 05:43:00,4.1,1.3,29.66,NNW,331,11.9,15.4,88,0.00,,OVC010,0.00,VWS V14.01,2013-01-11 12:43:00,
2013-01-11 05:48:00,4.1,1.3,29.66,NNW,328,11.0,17.4,88,0.00,,OVC010,0.00,VWS V14.01,2013-01-11 12:48:00,
2013-01-11 05:53:00,4.1,1.3,29.66,NNW,341,15.9,17.4,88,0.00,,OVC010,0.00,VWS V14.01,2013-01-11 12:53:00,
2013-01-11 05:58:00,3.7,1.0,29.66,NW,311,16.8,19.7,88,0.00,,OVC010,0.00,VWS V14.01,2013-01-11 12:58:00,
2013-01-11 06:03:00,3.7,1.0,29.66,NW,321,13.2,18.8,88,0.00,,OVC012,0.00,VWS V14.01,2013-01-11 13:03:00,
2013-01-11 06:08:00,3.7,1.0,29.66,North,350,12.3,18.8,88,0.00,,OVC012,0.00,VWS V14.01,2013-01-11 13:08:00,
2013-01-11 06:13:00,3.6,0.8,29.66,NNW,346,15.0,20.1,88,0.00,,OVC012,0.00,VWS V14.01,2013-01-11 13:13:00,
2013-01-11 06:18:00,3.4,0.6,29.66,North,353,15.0,20.1,88,0.00,,OVC012,0.00,VWS V14.01,2013-01-11 13:18:00,
2013-01-11 06:23:00,3.4,0.6,29.66,NNW,328,8.7,20.1,88,0.00,,OVC012,0.00,VWS V14.01,2013-01-11 13:23:00,
2013-01-11 06:28:00,3.4,0.6,29.69,NW,325,14.1,23.3,88,0.00,,OVC012,0.00,VWS V14.01,2013-01-11 13:28:00,
2013-01-11 06:33:00,3.2,0.4,29.69,NNW,333,17.4,23.3,88,0.00,,OVC012,0.00,VWS V14.01,2013-01-11 13:33:00,
2013-01-11 06:37:00,3.2,0.4,29.69,NNW,327,15.0,23.3,88,0.00,,OVC012,0.00,VWS V14.01,2013-01-11 13:37:00,
2013-01-11 06:42:00,3.2,0.4,29.69,North,353,12.8,23.3,88,0.00,,OVC012,0.00,VWS V14.01,2013-01-11 13:42:00,
2013-01-11 06:47:00,3.2,0.4,29.69,NW,321,15.4,23.3,88,0.00,,OVC012,0.00,VWS V14.01,2013-01-11 13:47:00,
2013-01-11 06:52:00,3.0,0.3,29.69,NW,326,10.1,23.3,88,0.00,,OVC012,0.00,VWS V14.01,2013-01-11 13:52:00,
2013-01-11 06:57:00,2.8,0.1,29.69,NW,319,16.3,23.3,88,0.00,,OVC012,0.00,VWS V14.01,2013-01-11 13:57:00,
2013-01-11 07:02:00,2.8,0.1,29.69,NNW,332,16.3,23.7,88,0.00,,OVC010,0.00,VWS V14.01,2013-01-11 14:02:00,
2013-01-11 07:07:00,2.8,0.1,29.69,NNW,343,15.4,23.7,88,0.00,,OVC010,0.00,VWS V14.01,2013-01-11 14:07:00,
2013-01-11 07:12:00,2.7,-0.1,29.69,NNW,332,18.8,23.7,88,0.00,,OVC010,0.00,VWS V14.01,2013-01-11 14:12:00,
2013-01-11 07:17:00,2.5,-0.3,29.69,NNW,335,21.5,23.7,88,0.00,,OVC010,0.00,VWS V14.01,2013-01-11 14:17:00,
2013-01-11 07:22:00,2.5,-0.3,29.69,NNW,327,15.4,23.7,88,0.00,,OVC010,0.00,VWS V14.01,2013-01-11 14:22:00,
2013-01-11 07:27:00,2.3,-0.4,29.69,NNW,331,13.6,23.7,88,0.00,,OVC010,0.00,VWS V14.01,2013-01-11 14:27:00,
2013-01-11 07:32:00,2.1,-0.6,29.69,NNW,340,12.3,17.4,88,0.00,,OVC010,0.00,VWS V14.01,2013-01-11 14:32:00,
2013-01-11 07:37:00,1.9,-0.8,29.69,NW,321,16.3,17.4,88,0.00,,OVC010,0.00,VWS V14.01,2013-01-11 14:37:00,
2013-01-11 07:42:00,1.9,-0.8,29.72,North,353,12.3,17.9,88,0.00,,OVC010,0.00,VWS V14.01,2013-01-11 14:42:00,
2013-01-11 07:47:00,1.9,-0.8,29.72,NW,323,12.8,20.6,88,0.00,,OVC010,0.00,VWS V14.01,2013-01-11 14:47:00,
2013-01-11 07:52:00,1.6,-1.1,29.72,NW,326,17.4,20.6,88,0.00,,OVC010,0.00,VWS V14.01,2013-01-11 14:52:00,
2013-01-11 07:57:00,1.6,-1.1,29.72,NW,308,13.2,20.6,88,0.00,,OVC010,0.00,VWS V14.01,2013-01-11 14:57:00,
2013-01-11 08:02:00,1.6,-1.1,29.72,NW,323,13.2,18.3,88,0.00,,OVC010,0.00,VWS V14.01,2013-01-11 15:02:00,
2013-01-11 08:07:00,1.6,-1.1,29.72,NNW,330,15.0,22.8,88,0.00,,OVC010,0.00,VWS V14.01,2013-01-11 15:07:00,
2013-01-11 08:12:00,1.6,-1.1,29.72,NW,324,10.5,22.8,88,0.00,,OVC010,0.00,VWS V14.01,2013-01-11 15:12:00,
2013-01-11 08:17:00,1.6,-1.1,29.72,NW,318,15.0,22.8,88,0.00,,OVC010,0.00,VWS V14.01,2013-01-11 15:17:00,
2013-01-11 08:22:00,1.6,-1.1,29.72,NNW,330,10.1,22.8,88,0.00,,OVC010,0.00,VWS V14.01,2013-01-11 15:22:00,
2013-01-11 08:27:00,1.2,-1.5,29.72,NNW,332,10.1,22.8,88,0.00,,OVC010,0.00,VWS V14.01,2013-01-11 15:27:00,
2013-01-11 08:32:00,0.9,-1.9,29.72,NNW,335,10.1,10.5,88,0.00,,OVC010,0.00,VWS V14.01,2013-01-11 15:32:00,
2013-01-11 08:37:00,0.7,-2.0,29.72,NW,317,10.1,11.0,88,0.00,,OVC010,0.00,VWS V14.01,2013-01-11 15:37:00,
2013-01-11 08:42:00,0.9,-1.9,29.72,NNW,337,8.1,12.3,88,0.00,,OVC010,0.00,VWS V14.01,2013-01-11 15:42:00,
2013-01-11 08:47:00,1.2,-1.5,29.72,North,5,8.7,13.2,88,0.00,,OVC010,0.00,VWS V14.01,2013-01-11 15:47:00,
2013-01-11 08:52:00,1.2,-1.5,29.72,North,0,12.3,13.2,88,0.00,,OVC010,0.00,VWS V14.01,2013-01-11 15:52:00,
2013-01-11 08:57:00,1.6,-1.1,29.72,NW,326,10.1,15.9,88,0.00,,OVC010,0.00,VWS V14.01,2013-01-11 15:57:00,
2013-01-11 09:02:00,1.6,-1.1,29.72,NNW,327,15.0,15.4,88,0.00,,OVC014,0.00,VWS V14.01,2013-01-11 16:02:00,
2013-01-11 09:07:00,1.8,-1.0,29.72,NW,322,10.5,17.0,88,0.00,,OVC014,0.00,VWS V14.01,2013-01-11 16:07:00,
2013-01-11 09:12:00,1.9,-0.8,29.72,NNW,335,8.3,17.0,88,0.00,,OVC014,0.00,VWS V14.01,2013-01-11 16:12:00,
2013-01-11 09:17:00,2.3,-0.4,29.72,NNW,334,14.1,17.0,88,0.00,,OVC014,0.00,VWS V14.01,2013-01-11 16:17:00,
2013-01-11 09:22:00,2.5,-0.3,29.72,NNW,335,15.4,17.4,88,0.00,,OVC014,0.00,VWS V14.01,2013-01-11 16:22:00,
2013-01-11 09:27:00,2.5,-0.3,29.72,NNW,341,12.3,17.9,88,0.00,,OVC014,0.00,VWS V14.01,2013-01-11 16:27:00,
2013-01-11 09:32:00,2.8,0.1,29.72,NW,326,12.8,16.3,88,0.00,,OVC014,0.00,VWS V14.01,2013-01-11 16:32:00,
2013-01-11 09:37:00,3.0,0.3,29.72,NW,311,17.9,17.9,88,0.00,,OVC014,0.00,VWS V14.01,2013-01-11 16:37:00,
2013-01-11 09:42:00,3.0,0.3,29.69,NNW,328,13.2,17.9,88,0.00,,OVC014,0.00,VWS V14.01,2013-01-11 16:42:00,
2013-01-11 09:47:00,3.0,0.3,29.69,NW,317,17.0,25.5,88,0.00,,OVC014,0.00,VWS V14.01,2013-01-11 16:47:00,
2013-01-11 09:52:00,3.2,0.4,29.69,NW,326,12.8,25.5,88,0.00,,OVC014,0.00,VWS V14.01,2013-01-11 16:52:00,
2013-01-11 09:57:00,2.3,-0.4,29.69,North,349,11.0,25.5,88,0.00,,OVC014,0.00,VWS V14.01,2013-01-11 16:57:00,
2013-01-11 10:02:00,2.3,-0.4,29.69,North,353,15.9,17.4,88,0.00,,OVC014,0.00,VWS V14.01,2013-01-11 17:02:00,
2013-01-11 10:07:00,2.1,-0.6,29.69,NW,321,15.0,19.7,88,0.00,,OVC014,0.00,VWS V14.01,2013-01-11 17:07:00,
2013-01-11 10:12:00,1.9,-0.8,29.72,NW,318,17.9,19.7,88,0.00,,OVC014,0.00,VWS V14.01,2013-01-11 17:12:00,
2013-01-11 10:17:00,1.8,-1.0,29.72,NW,322,8.7,21.5,88,0.00,,OVC014,0.00,VWS V14.01,2013-01-11 17:17:00,
2013-01-11 10:22:00,1.9,-0.8,29.72,NW,323,8.3,21.5,88,0.00,,OVC014,0.00,VWS V14.01,2013-01-11 17:22:00,
2013-01-11 10:27:00,1.9,-0.8,29.72,NW,325,12.8,21.5,88,0.00,,OVC014,0.00,VWS V14.01,2013-01-11 17:27:00,
2013-01-11 10:32:00,1.9,-0.8,29.72,North,353,9.6,13.2,88,0.00,,OVC014,0.00,VWS V14.01,2013-01-11 17:32:00,
2013-01-11 10:37:00,1.6,-1.1,29.72,NW,321,17.4,17.4,88,0.00,,OVC014,0.00,VWS V14.01,2013-01-11 17:37:00,
2013-01-11 10:42:00,1.6,-1.1,29.72,NNW,342,8.3,17.4,88,0.00,,OVC014,0.00,VWS V14.01,2013-01-11 17:42:00,
2013-01-11 10:47:00,1.6,-1.1,29.72,NW,310,15.4,17.4,88,0.00,,OVC014,0.00,VWS V14.01,2013-01-11 17:47:00,
2013-01-11 10:52:00,1.4,-1.3,29.72,NNW,346,15.0,17.4,88,0.00,,OVC014,0.00,VWS V14.01,2013-01-11 17:52:00,
2013-01-11 10:57:00,1.2,-1.5,29.75,NNW,338,12.3,17.4,88,0.00,,OVC014,0.00,VWS V14.01,2013-01-11 17:57:00,
2013-01-11 11:02:00,1.2,-1.5,29.75,NW,316,11.0,16.3,88,0.00,,OVC032,0.00,VWS V14.01,2013-01-11 18:02:00,
2013-01-11 11:07:00,1.2,-1.5,29.75,NNW,329,12.8,17.0,88,0.00,,OVC032,0.00,VWS V14.01,2013-01-11 18:07:00,
2013-01-11 11:12:00,1.8,-1.0,29.75,NNW,333,13.2,17.0,88,0.00,,OVC032,0.00,VWS V14.01,2013-01-11 18:12:00,
2013-01-11 11:17:00,2.5,-0.3,29.75,NNW,329,11.0,17.0,88,0.00,,OVC032,0.00,VWS V14.01,2013-01-11 18:17:00,
2013-01-11 11:22:00,2.5,-0.3,29.75,NNW,330,17.0,17.0,88,0.00,,OVC032,0.00,VWS V14.01,2013-01-11 18:22:00,
2013-01-11 11:27:00,2.5,-0.3,29.75,NNW,327,13.2,19.7,88,0.00,,OVC032,0.00,VWS V14.01,2013-01-11 18:27:00,
2013-01-11 11:32:00,2.5,-0.3,29.75,NW,322,11.0,15.0,88,0.00,,OVC032,0.00,VWS V14.01,2013-01-11 18:32:00,
2013-01-11 11:37:00,2.7,-0.1,29.75,NW,321,13.2,15.4,88,0.00,,OVC032,0.00,VWS V14.01,2013-01-11 18:37:00,
2013-01-11 11:42:00,3.2,0.4,29.75,NW,326,11.0,15.4,88,0.00,,OVC032,0.00,VWS V14.01,2013-01-11 18:42:00,
2013-01-11 11:47:00,3.2,0.4,29.75,NNW,341,10.1,17.4,88,0.00,,OVC032,0.00,VWS V14.01,2013-01-11 18:47:00,
2013-01-11 11:52:00,3.0,0.3,29.75,NNW,335,10.1,18.8,88,0.00,,OVC032,0.00,VWS V14.01,2013-01-11 18:52:00,
2013-01-11 11:57:00,3.0,0.3,29.75,NNW,338,11.0,18.8,88,0.00,,OVC032,0.00,VWS V14.01,2013-01-11 18:57:00,
2013-01-11 12:02:00,3.0,0.3,29.75,NW,325,15.4,17.9,88,0.00,,OVC009,0.00,VWS V14.01,2013-01-11 19:02:00,
2013-01-11 12:07:00,3.2,0.4,29.75,NW,321,15.4,17.9,88,0.00,,OVC009,0.00,VWS V14.01,2013-01-11 19:07:00,
2013-01-11 12:12:00,3.2,0.4,29.75,NNW,335,12.8,17.9,88,0.00,,OVC009,0.00,VWS V14.01,2013-01-11 19:12:00,
2013-01-11 12:17:00,3.4,0.6,29.75,NNW,334,15.0,17.9,88,0.00,,OVC009,0.00,VWS V14.01,2013-01-11 19:17:00,
2013-01-11 12:22:00,3.6,0.8,29.75,NNW,328,13.2,17.9,88,0.00,,OVC009,0.00,VWS V14.01,2013-01-11 19:22:00,
2013-01-11 12:27:00,3.7,1.0,29.75,NW,317,13.2,17.9,88,0.00,,OVC009,0.00,VWS V14.01,2013-01-11 19:27:00,
2013-01-11 12:32:00,3.7,1.0,29.75,NW,323,15.0,17.4,88,0.00,,OVC009,0.00,VWS V14.01,2013-01-11 19:32:00,
2013-01-11 12:37:00,4.1,1.3,29.75,NNW,330,14.5,17.4,88,0.00,,OVC009,0.00,VWS V14.01,2013-01-11 19:37:00,
2013-01-11 12:42:00,4.1,1.3,29.75,NNW,327,16.8,17.4,88,0.00,,OVC009,0.00,VWS V14.01,2013-01-11 19:42:00,
2013-01-11 12:47:00,4.5,1.7,29.75,NW,320,12.8,17.4,88,0.00,,OVC009,0.00,VWS V14.01,2013-01-11 19:47:00,
2013-01-11 12:52:00,4.1,1.3,29.75,NNW,334,17.4,20.1,88,0.00,,OVC009,0.00,VWS V14.01,2013-01-11 19:52:00,
2013-01-11 12:57:00,4.1,1.3,29.75,NW,320,17.0,20.1,88,0.00,,OVC009,0.00,VWS V14.01,2013-01-11 19:57:00,
2013-01-11 13:02:00,4.3,1.5,29.75,NNW,329,11.0,12.3,88,0.00,,OVC012,0.00,VWS V14.01,2013-01-11 20:02:00,
2013-01-11 13:07:00,4.1,1.3,29.75,NW,314,13.2,16.3,88,0.00,,OVC012,0.00,VWS V14.01,2013-01-11 20:07:00,
2013-01-11 13:12:00,4.1,1.3,29.78,NNW,337,11.0,16.3,88,0.00,,OVC012,0.00,VWS V14.01,2013-01-11 20:12:00,
2013-01-11 13:17:00,3.9,1.2,29.78,NW,313,13.2,17.4,88,0.00,,OVC012,0.00,VWS V14.01,2013-01-11 20:17:00,
2013-01-11 13:22:00,4.1,1.3,29.78,NW,310,15.0,20.6,88,0.00,,OVC012,0.00,VWS V14.01,2013-01-11 20:22:00,
2013-01-11 13:27:00,4.1,1.3,29.78,NW,323,12.3,20.6,88,0.00,,OVC012,0.00,VWS V14.01,2013-01-11 20:27:00,
2013-01-11 13:32:00,4.1,1.3,29.78,NW,310,15.4,17.4,88,0.00,,OVC012,0.00,VWS V14.01,2013-01-11 20:32:00,
2013-01-11 13:37:00,3.7,1.0,29.78,NNW,328,12.8,18.8,88,0.00,,OVC012,0.00,VWS V14.01,2013-01-11 20:37:00,
2013-01-11 13:42:00,3.7,1.0,29.78,NNW,332,12.8,18.8,88,0.00,,OVC012,0.00,VWS V14.01,2013-01-11 20:42:00,
2013-01-11 13:47:00,3.6,0.8,29.78,NW,325,11.0,18.8,88,0.00,,OVC012,0.00,VWS V14.01,2013-01-11 20:47:00,
2013-01-11 13:52:00,3.6,0.8,29.78,NNW,331,11.9,18.8,88,0.00,,OVC012,0.00,VWS V14.01,2013-01-11 20:52:00,
2013-01-11 13:57:00,3.4,0.6,29.78,NNW,337,17.4,18.8,88,0.00,,OVC012,0.00,VWS V14.01,2013-01-11 20:57:00,
2013-01-11 14:02:00,3.6,0.8,29.78,NNW,333,17.4,17.4,88,0.00,,OVC012,0.00,VWS V14.01,2013-01-11 21:02:00,
2013-01-11 14:07:00,3.7,1.0,29.78,NW,317,13.2,20.1,88,0.00,,OVC024,0.00,VWS V14.01,2013-01-11 21:07:00,
2013-01-11 14:12:00,3.9,1.2,29.78,North,353,10.5,20.1,88,0.00,,OVC024,0.00,VWS V14.01,2013-01-11 21:12:00,
2013-01-11 14:17:00,4.3,1.5,29.78,NW,316,13.2,20.1,88,0.00,,OVC024,0.00,VWS V14.01,2013-01-11 21:17:00,
2013-01-11 14:22:00,4.5,1.7,29.78,NW,315,12.8,20.1,88,0.00,,OVC024,0.00,VWS V14.01,2013-01-11 21:22:00,
2013-01-11 14:27:00,4.3,1.5,29.78,NNW,331,12.3,20.1,88,0.00,,OVC024,0.00,VWS V14.01,2013-01-11 21:27:00,
2013-01-11 14:32:00,4.3,1.5,29.78,WNW,301,15.4,17.4,88,0.00,,OVC024,0.00,VWS V14.01,2013-01-11 21:32:00,
2013-01-11 14:37:00,4.6,1.9,29.78,NW,310,13.2,17.4,88,0.00,,OVC024,0.00,VWS V14.01,2013-01-11 21:37:00,
2013-01-11 14:42:00,5.0,2.2,29.78,NW,316,11.0,17.4,88,0.00,,OVC024,0.00,VWS V14.01,2013-01-11 21:42:00,
2013-01-11 14:47:00,5.0,2.2,29.78,NNW,332,13.6,22.4,88,0.00,,OVC024,0.00,VWS V14.01,2013-01-11 21:47:00,
2013-01-11 14:52:00,5.0,2.2,29.78,NW,317,19.7,22.4,88,0.00,,OVC024,0.00,VWS V14.01,2013-01-11 21:52:00,
2013-01-11 14:57:00,5.4,2.6,29.80,NW,323,10.1,22.4,88,0.00,,OVC024,0.00,VWS V14.01,2013-01-11 21:57:00,
2013-01-11 15:02:00,5.4,2.6,29.80,NW,313,12.3,17.0,88,0.00,,OVC024,0.00,VWS V14.01,2013-01-11 22:02:00,
2013-01-11 15:07:00,4.5,1.7,29.80,NW,310,12.8,19.2,88,0.00,,OVC024,0.00,VWS V14.01,2013-01-11 22:07:00,
2013-01-11 15:12:00,4.3,1.5,29.80,NNW,333,11.9,19.2,88,0.00,,OVC024,0.00,VWS V14.01,2013-01-11 22:12:00,
2013-01-11 15:17:00,4.1,1.3,29.80,NW,308,12.3,22.8,88,0.00,,OVC024,0.00,VWS V14.01,2013-01-11 22:17:00,
2013-01-11 15:22:00,4.1,1.3,29.80,NW,310,15.0,22.8,88,0.00,,OVC024,0.00,VWS V14.01,2013-01-11 22:22:00,
2013-01-11 15:27:00,4.3,1.5,29.80,WNW,297,12.8,23.7,88,0.00,,OVC024,0.00,VWS V14.01,2013-01-11 22:27:00,
2013-01-11 15:32:00,4.1,1.3,29.80,NNW,327,17.4,26.6,88,0.00,,OVC024,0.00,VWS V14.01,2013-01-11 22:32:00,
2013-01-11 15:37:00,4.1,1.3,29.80,NW,313,15.4,26.6,88,0.00,,OVC024,0.00,VWS V14.01,2013-01-11 22:37:00,
2013-01-11 15:42:00,4.1,1.3,29.80,NW,315,13.2,26.6,88,0.00,,OVC024,0.00,VWS V14.01,2013-01-11 22:42:00,
2013-01-11 15:47:00,4.1,1.3,29.80,NW,317,15.4,26.6,88,0.00,,OVC024,0.00,VWS V14.01,2013-01-11 22:47:00,
2013-01-11 15:52:00,3.9,1.2,29.80,WNW,301,13.2,26.6,88,0.00,,OVC024,0.00,VWS V14.01,2013-01-11 22:52:00,
2013-01-11 15:57:00,3.7,1.0,29.83,NW,310,16.3,26.6,88,0.00,,OVC024,0.00,VWS V14.01,2013-01-11 22:57:00,
2013-01-11 16:02:00,3.6,0.8,29.83,WNW,296,24.6,24.6,88,0.00,,OVC013,0.00,VWS V14.01,2013-01-11 23:02:00,
2013-01-11 16:07:00,3.6,0.8,29.83,NW,319,11.9,24.6,88,0.00,,OVC013,0.00,VWS V14.01,2013-01-11 23:07:00,
2013-01-11 16:12:00,3.6,0.8,29.83,NW,309,15.4,25.5,88,0.00,,OVC013,0.00,VWS V14.01,2013-01-11 23:12:00,
2013-01-11 16:17:00,3.4,0.6,29.83,NW,317,14.1,25.5,88,0.00,,OVC013,0.00,VWS V14.01,2013-01-11 23:17:00,
2013-01-11 16:22:00,3.4,0.6,29.83,NW,311,15.4,25.5,88,0.00,,OVC013,0.00,VWS V14.01,2013-01-11 23:22:00,
2013-01-11 16:27:00,3.2,0.4,29.83,NNW,333,14.1,25.5,88,0.00,,OVC013,0.00,VWS V14.01,2013-01-11 23:27:00,
2013-01-11 16:32:00,2.5,-0.3,29.83,NW,320,15.0,15.0,88,0.00,,OVC013,0.00,VWS V14.01,2013-01-11 23:32:00,
2013-01-11 16:37:00,1.8,-1.0,29.83,NNW,338,13.2,17.4,88,0.00,,OVC013,0.00,VWS V14.01,2013-01-11 23:37:00,
2013-01-11 16:42:00,1.6,-1.1,29.83,NW,322,13.2,17.4,88,0.00,,OVC013,0.00,VWS V14.01,2013-01-11 23:42:00,
2013-01-11 16:47:00,1.6,-1.1,29.83,NNW,328,13.2,17.4,88,0.00,,OVC013,0.00,VWS V14.01,2013-01-11 23:47:00,
2013-01-11 16:52:00,1.9,-0.8,29.83,NNW,332,12.8,17.4,88,0.00,,OVC013,0.00,VWS V14.01,2013-01-11 23:52:00,
2013-01-11 16:57:00,1.9,-0.8,29.86,NW,308,8.3,17.4,88,0.00,,OVC013,0.00,VWS V14.01,2013-01-11 23:57:00,
2013-01-11 17:02:00,2.5,-0.3,29.86,NNW,327,11.0,11.4,88,0.00,,OVC065,0.00,VWS V14.01,2013-01-12 00:02:00,
2013-01-11 17:07:00,2.8,0.1,29.86,NNW,327,12.8,17.4,88,0.00,,OVC065,0.00,VWS V14.01,2013-01-12 00:07:00,
2013-01-11 17:12:00,2.8,0.1,29.86,North,353,12.8,17.4,88,0.00,,OVC065,0.00,VWS V14.01,2013-01-12 00:12:00,
2013-01-11 17:17:00,2.8,0.1,29.86,NNW,328,13.2,17.4,88,0.00,,OVC065,0.00,VWS V14.01,2013-01-12 00:17:00,
2013-01-11 17:22:00,2.8,0.1,29.86,NNW,328,13.2,19.7,88,0.00,,OVC065,0.00,VWS V14.01,2013-01-12 00:22:00,
2013-01-11 17:27:00,2.8,0.1,29.86,NNW,328,14.1,19.7,88,0.00,,OVC065,0.00,VWS V14.01,2013-01-12 00:27:00,
2013-01-11 17:32:00,2.8,0.1,29.86,NNW,332,14.5,14.5,88,0.00,,OVC065,0.00,VWS V14.01,2013-01-12 00:32:00,
2013-01-11 17:37:00,3.0,0.3,29.86,NW,309,13.2,17.4,88,0.00,,OVC065,0.00,VWS V14.01,2013-01-12 00:37:00,
2013-01-11 17:42:00,3.0,0.3,29.86,NW,306,15.4,17.4,88,0.00,,OVC065,0.00,VWS V14.01,2013-01-12 00:42:00,
2013-01-11 17:47:00,3.2,0.4,29.86,NW,310,19.7,19.7,88,0.00,,OVC065,0.00,VWS V14.01,2013-01-12 00:47:00,
2013-01-11 17:52:00,3.2,0.4,29.86,WNW,301,15.0,19.7,88,0.00,,OVC065,0.00,VWS V14.01,2013-01-12 00:52:00,
2013-01-11 17:57:00,3.2,0.4,29.89,NW,309,12.8,19.7,88,0.00,,OVC065,0.00,VWS V14.01,2013-01-12 00:57:00,
2013-01-11 18:02:00,3.2,0.4,29.89,WNW,291,12.3,15.4,88,0.00,,OVC065,0.00,VWS V14.01,2013-01-12 01:02:00,
2013-01-11 18:07:00,3.4,0.6,29.89,NW,314,10.5,21.9,88,0.00,,OVC010,0.00,VWS V14.01,2013-01-12 01:07:00,
2013-01-11 18:12:00,3.6,0.8,29.89,NW,309,15.4,21.9,88,0.00,,OVC010,0.00,VWS V14.01,2013-01-12 01:12:00,
2013-01-11 18:17:00,3.6,0.8,29.89,NW,315,15.4,21.9,88,0.00,,OVC010,0.00,VWS V14.01,2013-01-12 01:17:00,
2013-01-11 18:22:00,3.7,1.0,29.89,NW,324,11.0,22.8,88,0.00,,OVC010,0.00,VWS V14.01,2013-01-12 01:22:00,
2013-01-11 18:27:00,3.7,1.0,29.89,WNW,282,15.4,22.8,88,0.00,,OVC010,0.00,VWS V14.01,2013-01-12 01:27:00,
2013-01-11 18:32:00,3.9,1.2,29.89,NW,309,13.2,17.0,88,0.00,,OVC010,0.00,VWS V14.01,2013-01-12 01:32:00,
2013-01-11 18:37:00,4.1,1.3,29.89,WNW,301,13.2,17.0,88,0.00,,OVC010,0.00,VWS V14.01,2013-01-12 01:37:00,
2013-01-11 18:42:00,4.1,1.3,29.89,WNW,288,16.8,20.1,88,0.00,,OVC010,0.00,VWS V14.01,2013-01-12 01:42:00,
2013-01-11 18:47:00,4.3,1.5,29.89,WNW,303,10.5,22.4,88,0.00,,OVC010,0.00,VWS V14.01,2013-01-12 01:47:00,
2013-01-11 18:52:00,4.1,1.3,29.89,NW,317,15.4,22.8,88,0.00,,OVC010,0.00,VWS V14.01,2013-01-12 01:52:00,
2013-01-11 18:57:00,4.1,1.3,29.89,NW,320,12.8,23.3,88,0.00,,OVC010,0.00,VWS V14.01,2013-01-12 01:57:00,
2013-01-11 19:02:00,4.1,1.3,29.89,NW,307,19.7,19.7,88,0.00,,OVC080,0.00,VWS V14.01,2013-01-12 02:02:00,
2013-01-11 19:07:00,4.1,1.3,29.89,NW,321,8.3,19.7,88,0.00,,OVC080,0.00,VWS V14.01,2013-01-12 02:07:00,
2013-01-11 19:12:00,4.1,1.3,29.89,NNW,330,13.6,19.7,88,0.00,,OVC080,0.00,VWS V14.01,2013-01-12 02:12:00,
2013-01-11 19:17:00,4.3,1.5,29.89,NW,315,11.9,19.7,88,0.00,,OVC080,0.00,VWS V14.01,2013-01-12 02:17:00,
2013-01-11 19:22:00,4.3,1.5,29.89,NW,307,11.4,19.7,88,0.00,,OVC080,0.00,VWS V14.01,2013-01-12 02:22:00,
2013-01-11 19:27:00,4.3,1.5,29.92,NNW,328,12.3,19.7,88,0.00,,OVC080,0.00,VWS V14.01,2013-01-12 02:27:00,
2013-01-11 19:32:00,4.3,1.5,29.92,NW,317,8.3,10.1,88,0.00,,OVC080,0.00,VWS V14.01,2013-01-12 02:32:00,
2013-01-11 19:37:00,4.1,1.3,29.92,NW,319,15.0,15.4,88,0.00,,OVC080,0.00,VWS V14.01,2013-01-12 02:37:00,
2013-01-11 19:42:00,3.9,1.2,29.92,NNW,330,8.3,17.4,88,0.00,,OVC080,0.00,VWS V14.01,2013-01-12 02:42:00,
2013-01-11 19:47:00,3.7,1.0,29.92,NNW,334,13.2,17.4,88,0.00,,OVC080,0.00,VWS V14.01,2013-01-12 02:47:00,
2013-01-11 19:52:00,3.2,0.4,29.92,NNW,340,21.5,21.5,88,0.00,,OVC080,0.00,VWS V14.01,2013-01-12 02:52:00,
2013-01-11 19:57:00,3.0,0.3,29.92,NW,326,14.1,21.5,88,0.00,,OVC080,0.00,VWS V14.01,2013-01-12 02:57:00,
2013-01-11 20:02:00,2.8,0.1,29.92,NNW,330,13.6,13.6,88,0.00,,OVC080,0.00,VWS V14.01,2013-01-12 03:02:00,
2013-01-11 20:07:00,2.8,0.1,29.92,NW,317,12.8,18.8,88,0.00,,OVC049,0.00,VWS V14.01,2013-01-12 03:07:00,
2013-01-11 20:12:00,2.8,0.1,29.92,NW,315,12.8,18.8,88,0.00,,OVC049,0.00,VWS V14.01,2013-01-12 03:12:00,
2013-01-11 20:17:00,2.7,-0.1,29.92,NNW,341,7.6,18.8,88,0.00,,OVC049,0.00,VWS V14.01,2013-01-12 03:17:00,
2013-01-11 20:22:00,2.5,-0.3,29.92,NNW,328,14.5,18.8,88,0.00,,OVC049,0.00,VWS V14.01,2013-01-12 03:22:00,
2013-01-11 20:27:00,1.9,-0.8,29.92,North,357,11.0,18.8,88,0.00,,OVC049,0.00,VWS V14.01,2013-01-12 03:27:00,
2013-01-11 20:32:00,1.8,-1.0,29.92,NW,317,8.7,10.5,88,0.00,,OVC049,0.00,VWS V14.01,2013-01-12 03:32:00,
2013-01-11 20:37:00,1.6,-1.1,29.92,NNW,343,8.7,15.4,88,0.00,,OVC049,0.00,VWS V14.01,2013-01-12 03:37:00,
2013-01-11 20:42:00,1.6,-1.1,29.92,NNW,330,11.0,18.3,88,0.00,,OVC049,0.00,VWS V14.01,2013-01-12 03:42:00,
2013-01-11 20:47:00,1.6,-1.1,29.92,NNW,328,11.0,18.3,88,0.00,,OVC049,0.00,VWS V14.01,2013-01-12 03:47:00,
2013-01-11 20:52:00,1.6,-1.1,29.92,NW,322,10.5,18.3,88,0.00,,OVC049,0.00,VWS V14.01,2013-01-12 03:52:00,
2013-01-11 20:57:00,1.6,-1.1,29.92,NNW,341,8.7,18.3,88,0.00,,OVC049,0.00,VWS V14.01,2013-01-12 03:57:00,
2013-01-11 21:02:00,1.6,-1.1,29.92,NW,317,8.1,8.1,88,0.00,,OVC049,0.00,VWS V14.01,2013-01-12 04:02:00,
2013-01-11 21:07:00,1.8,-1.0,29.92,NNW,332,8.7,11.0,88,0.00,,OVC028,0.00,VWS V14.01,2013-01-12 04:07:00,
2013-01-11 21:12:00,1.6,-1.1,29.92,NNW,331,11.0,11.0,88,0.00,,OVC028,0.00,VWS V14.01,2013-01-12 04:12:00,
2013-01-11 21:17:00,1.8,-1.0,29.92,NNW,332,8.3,13.2,88,0.00,,OVC028,0.00,VWS V14.01,2013-01-12 04:17:00,
2013-01-11 21:22:00,1.6,-1.1,29.92,NNW,336,8.7,13.6,88,0.00,,OVC028,0.00,VWS V14.01,2013-01-12 04:22:00,
2013-01-11 21:27:00,1.6,-1.1,29.92,NNW,329,7.2,13.6,88,0.00,,OVC028,0.00,VWS V14.01,2013-01-12 04:27:00,
2013-01-11 21:32:00,1.6,-1.1,29.92,NNW,327,10.5,12.8,88,0.00,,OVC028,0.00,VWS V14.01,2013-01-12 04:32:00,
2013-01-11 21:37:00,1.6,-1.1,29.92,North,349,10.5,14.1,88,0.00,,OVC028,0.00,VWS V14.01,2013-01-12 04:37:00,
2013-01-11 21:42:00,1.6,-1.1,29.92,NNW,343,8.1,14.1,88,0.00,,OVC028,0.00,VWS V14.01,2013-01-12 04:42:00,
2013-01-11 21:47:00,1.6,-1.1,29.92,NW,320,11.0,14.1,88,0.00,,OVC028,0.00,VWS V14.01,2013-01-12 04:47:00,
2013-01-11 21:52:00,1.6,-1.1,29.92,NW,323,12.8,14.1,88,0.00,,OVC028,0.00,VWS V14.01,2013-01-12 04:52:00,
2013-01-11 21:57:00,1.6,-1.1,29.92,North,353,11.0,14.1,88,0.00,,OVC028,0.00,VWS V14.01,2013-01-12 04:57:00,
2013-01-11 22:00:00,1.8,-1.0,29.92,NW,318,11.4,14.1,88,0.00,,OVC028,0.00,VWS V14.01,2013-01-12 05:00:00,
2013-01-11 22:01:00,1.8,-1.0,29.92,NNW,342,10.1,14.1,88,0.00,,OVC028,0.00,VWS V14.01,2013-01-12 05:01:00,
2013-01-11 22:06:00,1.9,-0.8,29.92,NNW,336,8.3,15.0,88,0.00,,OVC026,0.00,VWS V14.01,2013-01-12 05:06:00,
2013-01-11 22:11:00,1.9,-0.8,29.92,NW,321,14.5,15.4,88,0.00,,OVC026,0.00,VWS V14.01,2013-01-12 05:11:00,
2013-01-11 22:16:00,1.9,-0.8,29.92,North,11,8.3,15.4,88,0.00,,OVC026,0.00,VWS V14.01,2013-01-12 05:16:00,
2013-01-11 22:21:00,1.6,-1.1,29.92,North,353,5.8,15.4,88,0.00,,OVC026,0.00,VWS V14.01,2013-01-12 05:21:00,
2013-01-11 22:26:00,1.6,-1.1,29.92,North,353,8.7,15.4,88,0.00,,OVC026,0.00,VWS V14.01,2013-01-12 05:26:00,
2013-01-11 22:31:00,1.6,-1.1,29.92,NNW,338,10.5,15.4,88,0.00,,OVC026,0.00,VWS V14.01,2013-01-12 05:31:00,
2013-01-11 22:36:00,1.4,-1.3,29.92,NNW,336,12.3,13.6,88,0.00,,OVC026,0.00,VWS V14.01,2013-01-12 05:36:00,
2013-01-11 22:41:00,1.4,-1.3,29.92,NNW,333,10.5,13.6,88,0.00,,OVC026,0.00,VWS V14.01,2013-01-12 05:41:00,
2013-01-11 22:46:00,1.2,-1.5,29.92,NNW,335,8.1,13.6,88,0.00,,OVC026,0.00,VWS V14.01,2013-01-12 05:46:00,
2013-01-11 22:51:00,1.2,-1.5,29.92,NNW,343,8.3,13.6,88,0.00,,OVC026,0.00,VWS V14.01,2013-01-12 05:51:00,
2013-01-11 22:56:00,1.2,-1.5,29.92,NW,320,8.3,13.6,88,0.00,,OVC026,0.00,VWS V14.01,2013-01-12 05:56:00,
2013-01-11 23:01:00,1.2,-1.5,29.92,NNW,338,5.8,13.6,88,0.00,,OVC026,0.00,VWS V14.01,2013-01-12 06:01:00,
2013-01-11 23:06:00,1.2,-1.5,29.92,NNW,336,6.3,12.3,88,0.00,,OVC022,0.00,VWS V14.01,2013-01-12 06:06:00,
2013-01-11 23:11:00,1.2,-1.5,29.92,North,357,8.3,12.3,88,0.00,,OVC022,0.00,VWS V14.01,2013-01-12 06:11:00,
2013-01-11 23:16:00,1.2,-1.5,29.92,North,357,8.7,12.3,88,0.00,,OVC022,0.00,VWS V14.01,2013-01-12 06:16:00,
2013-01-11 23:21:00,1.2,-1.5,29.92,NNW,337,7.2,12.3,88,0.00,,OVC022,0.00,VWS V14.01,2013-01-12 06:21:00,
2013-01-11 23:26:00,1.2,-1.5,29.92,NNW,327,8.3,12.3,88,0.00,,OVC022,0.00,VWS V14.01,2013-01-12 06:26:00,
2013-01-11 23:31:00,1.2,-1.5,29.92,North,350,7.6,12.3,88,0.00,,OVC022,0.00,VWS V14.01,2013-01-12 06:31:00,
2013-01-11 23:36:00,1.2,-1.5,29.92,North,353,6.3,10.5,88,0.00,,OVC022,0.00,VWS V14.01,2013-01-12 06:36:00,
2013-01-11 23:41:00,1.4,-1.3,29.92,North,353,9.2,13.6,88,0.00,,OVC022,0.00,VWS V14.01,2013-01-12 06:41:00,
2013-01-11 23:46:00,1.2,-1.5,29.92,North,353,7.2,13.6,88,0.00,,OVC022,0.00,VWS V14.01,2013-01-12 06:46:00,
2013-01-11 23:51:00,1.4,-1.3,29.92,North,4,8.3,13.6,88,0.00,,OVC022,0.00,VWS V14.01,2013-01-12 06:51:00,
2013-01-11 23:56:00,1.4,-1.3,29.95,NNW,327,9.6,13.6,88,0.00,,OVC022,0.00,VWS V14.01,2013-01-12 06:56:00,